Latest Weather Observations for Gympie

IDQ60801

Issued at 4:05 pm EST Thursday 2 October 2014 (issued every 30 minutes, with the page automatically refreshed every 10 minutes)

About weather observations | Map of weather stations | Latest weather observations for QLD | Other Formats
Station Details ID: 040093 Name: GYMPIE Lat: -26.18 Lon: 152.64 Height: 64.5 m
Data from the previous 72 hours. | See also: Recent months at Gympie
Date/Time
EST
Temp
°C
App
Temp
°C
Dew
Point
Rel
Hum
%
Delta-T
°C
Wind Press
QNH
hPa
Press
MSL
hPa
Rain
since 9 am
mm
Dir
 
Spd
km/h
Gust
km/h
Spd
kts
Gust
kts
02/04:00pm 22.2 19.9 11.9 52 5.8 E 15 24 8 13 1019.3 1019.1 0.0
02/03:30pm 22.2 19.9 11.9 52 5.8 E 15 24 8 13 1019.0 1018.8 0.0
02/03:00pm 22.6 20.7 11.7 50 6.1 E 13 22 7 12 1019.0 1018.8 0.0
02/02:30pm 23.3 21.7 11.7 48 6.5 ENE 11 19 6 10 1019.0 1018.8 0.0
02/02:00pm 22.8 21.0 12.1 51 6.1 SE 13 26 7 14 1019.2 1019.0 0.0
02/01:30pm 23.4 22.0 12.1 49 6.4 E 11 20 6 11 1019.4 1019.2 0.0
02/01:00pm 23.4 21.1 11.8 48 6.5 E 15 26 8 14 1019.7 1019.5 0.0
02/12:30pm 23.9 22.4 13.2 51 6.2 E 13 26 7 14 1020.0 1019.8 0.0
02/12:00pm 23.1 21.8 12.4 51 6.1 E 11 20 6 11 1020.2 1020.0 0.0
02/11:30am 23.2 22.2 12.2 50 6.3 E 9 17 5 9 1020.7 1020.5 0.0
02/11:00am 22.4 20.3 12.4 53 5.7 ESE 15 28 8 15 1021.1 1020.9 0.0
02/10:30am 23.8 22.3 13.1 51 6.2 E 13 26 7 14 1021.4 1021.2 0.0
02/10:00am 21.5 19.8 12.4 56 5.1 SE 13 26 7 14 1021.6 1021.4 0.0
02/09:30am 21.4 18.6 11.4 53 5.6 SE 17 30 9 16 1021.7 1021.5 0.0
02/09:00am 21.2 19.0 12.1 56 5.1 SE 15 30 8 16 1021.9 1021.7 0.0
02/08:30am 20.3 18.2 12.3 60 4.5 ESE 15 26 8 14 1022.0 1021.8 0.0
02/08:00am 20.1 18.6 13.1 64 4.0 SE 13 20 7 11 1021.7 1021.5 0.0
02/07:30am 19.8 18.4 13.3 66 3.7 SE 13 22 7 12 1021.3 1021.1 0.0
02/07:00am 19.4 17.2 13.3 68 3.5 SE 17 32 9 17 1020.9 1020.7 0.0
02/06:30am 19.1 18.9 13.5 70 3.2 SSE 7 13 4 7 1020.7 1020.5 0.0
02/06:00am 18.8 18.2 13.4 71 3.1 SSE 9 15 5 8 1020.3 1020.1 0.0
02/05:30am 18.7 18.0 13.1 70 3.2 SSE 9 13 5 7 1019.9 1019.7 0.0
02/05:00am 18.8 17.7 13.0 69 3.3 SE 11 22 6 12 1019.6 1019.4 0.0
02/04:30am 18.9 18.1 12.9 68 3.4 SSE 9 15 5 8 1019.2 1019.0 0.0
02/04:00am 18.9 18.2 13.1 69 3.3 SSE 9 17 5 9 1018.8 1018.6 0.0
02/03:30am 19.1 17.7 13.3 69 3.3 SSE 13 22 7 12 1018.6 1018.4 0.0
02/03:00am 19.3 16.9 13.7 70 3.2 SSE 19 30 10 16 1018.4 1018.2 0.0
02/02:30am 19.3 18.1 14.1 72 3.0 SSE 13 24 7 13 1018.4 1018.2 0.0
02/02:00am 19.6 18.2 14.6 73 2.9 SSE 15 26 8 14 1018.4 1018.2 0.0
02/01:30am 19.8 18.5 14.8 73 2.9 SSE 15 26 8 14 1018.3 1018.1 0.0
02/01:00am 20.0 18.8 15.0 73 2.9 SSE 15 26 8 14 1018.3 1018.1 0.0
02/12:30am 20.2 18.3 15.2 73 3.0 SSE 19 30 10 16 1018.3 1018.1 0.0
02/12:00am 20.5 18.6 15.7 74 2.9 SSE 20 32 11 17 1018.1 1017.9 0.0
 
Date/Time
EST
Temp
°C
App
Temp
°C
Dew
Point
Rel
Hum
%
Delta-T
°C
Wind Press
QNH
hPa
Press
MSL
hPa
Rain
since 9 am
mm
Dir
 
Spd
km/h
Gust
km/h
Spd
kts
Gust
kts
01/11:30pm 20.7 19.6 16.3 76 2.7 SSE 17 28 9 15 1018.0 1017.8 0.0
01/11:00pm 20.9 20.3 16.7 77 2.5 SSE 15 26 8 14 1017.7 1017.5 0.0
01/10:30pm 20.9 19.7 17.1 79 2.3 SSE 19 32 10 17 1017.5 1017.3 0.0
01/10:00pm 19.2 20.0 15.9 81 2.0 SE 6 9 3 5 1017.1 1016.9 0.0
01/09:30pm 19.3 20.3 15.4 78 2.3 N 4 4 2 2 1015.7 1015.5 0.0
01/09:00pm 20.3 21.5 15.9 76 2.6 N 4 6 2 3 1015.4 1015.2 0.0
01/08:30pm 21.4 22.6 15.9 71 3.3 NNE 4 6 2 3 1015.3 1015.1 0.0
01/08:00pm 21.9 23.0 15.7 68 3.7 N 4 9 2 5 1015.1 1014.9 0.0
01/07:30pm 22.9 23.6 16.2 66 4.1 N 7 13 4 7 1014.3 1014.1 0.0
01/07:00pm 24.1 23.6 15.9 60 5.0 N 13 22 7 12 1014.0 1013.8 0.0
01/06:30pm 25.3 24.3 15.6 55 5.9 NE 15 24 8 13 1013.5 1013.3 0.0
01/06:00pm 27.0 26.8 15.7 50 6.9 N 11 19 6 10 1012.7 1012.5 0.0
01/05:30pm 28.5 27.3 15.1 44 8.2 NNE 15 22 8 12 1012.2 1012.0 0.0
01/05:00pm 30.9 29.1 10.8 29 11.6 NNW 11 15 6 8 1012.0 1011.8 0.0
01/04:30pm 31.7 28.6 10.4 27 12.2 NNW 17 24 9 13 1012.0 1011.8 0.0
01/04:00pm 32.2 30.2 11.4 28 12.2 N 13 22 7 12 1012.1 1011.9 0.0
01/03:30pm 32.0 29.5 11.2 28 12.1 NNW 15 22 8 12 1012.2 1012.0 0.0
01/03:00pm 31.8 29.8 11.6 29 11.8 N 13 20 7 11 1012.5 1012.3 0.0
01/02:30pm 31.4 29.5 11.7 29 11.5 NNW 13 20 7 11 1013.0 1012.8 0.0
01/02:00pm 30.7 28.9 12.1 32 10.9 NW 13 26 7 14 1013.3 1013.1 0.0
01/01:30pm 30.7 28.7 12.6 33 10.7 N 15 26 8 14 1013.7 1013.5 0.0
01/01:00pm 29.6 26.8 12.5 35 10.1 N 19 26 10 14 1014.4 1014.2 0.0
01/12:30pm 29.3 27.4 13.1 37 9.6 N 15 24 8 13 1015.2 1015.0 0.0
01/12:00pm 28.1 26.4 12.5 38 9.1 NNW 13 20 7 11 1015.8 1015.6 0.0
01/11:30am 27.4 26.2 14.1 44 8.0 N 13 24 7 13 1016.6 1016.4 0.0
01/11:00am 26.3 25.8 13.8 46 7.4 NW 9 19 5 10 1017.4 1017.2 0.0
01/10:30am 25.1 23.7 13.3 48 6.9 NW 13 19 7 10 1018.0 1017.8 0.0
01/10:00am 23.9 23.0 13.7 53 6.0 NNW 11 20 6 11 1017.9 1017.7 0.0
01/09:30am 23.2 21.6 13.9 56 5.4 N 15 20 8 11 1018.2 1018.1 0.0
01/09:00am 22.0 19.5 13.4 58 5.0 NNW 19 30 10 16 1018.6 1018.5 0.0
01/08:30am 20.8 18.3 13.5 63 4.2 N 19 30 10 16 1018.9 1018.8 0.0
01/08:00am 20.0 19.0 13.5 66 3.7 NNW 11 17 6 9 1019.0 1018.9 0.0
01/07:30am 18.9 18.4 13.7 72 3.0 NNW 9 19 5 10 1019.0 1018.9 0.0
01/07:00am 16.0 17.3 14.2 89 1.0 CALM 0 2 0 1 1018.7 1018.6 0.0
01/06:30am 14.0 15.1 13.4 96 0.3 CALM 0 0 0 0 1018.5 1018.4 0.0
01/06:00am 13.4 14.3 12.8 96 0.3 CALM 0 0 0 0 1018.3 1018.2 0.0
01/05:30am 12.8 13.5 12.2 96 0.3 CALM 0 0 0 0 1018.3 1018.2 0.0
01/05:00am 12.7 13.3 11.8 94 0.5 CALM 0 0 0 0 1018.1 1018.0 0.0
01/04:30am 13.5 14.1 13.0 97 0.3 WSW 2 2 1 1 1018.1 1018.0 0.0
01/04:00am 13.3 14.1 12.7 96 0.3 CALM 0 0 0 0 1017.9 1017.8 0.0
01/03:30am 13.3 14.1 12.7 96 0.3 CALM 0 0 0 0 1017.9 1017.8 0.0
01/03:00am 13.4 14.2 12.5 94 0.5 CALM 0 0 0 0 1018.0 1017.9 0.0
01/02:30am 13.7 14.6 12.9 95 0.4 CALM 0 0 0 0 1018.2 1018.1 0.0
01/02:00am 14.1 14.9 12.5 90 0.9 CALM 0 0 0 0 1018.4 1018.3 0.0
01/01:30am 15.1 16.1 13.3 89 1.0 CALM 0 0 0 0 1018.6 1018.5 0.0
01/01:00am 14.7 14.9 13.1 90 0.9 N 4 4 2 2 1018.7 1018.6 0.0
01/12:30am 14.8 15.7 12.8 88 1.1 CALM 0 0 0 0 1019.1 1019.0 0.0
01/12:00am 15.2 16.0 12.7 85 1.4 CALM 0 0 0 0 1019.3 1019.2 0.0
 
Date/Time
EST
Temp
°C
App
Temp
°C
Dew
Point
Rel
Hum
%
Delta-T
°C
Wind Press
QNH
hPa
Press
MSL
hPa
Rain
since 9 am
mm
Dir
 
Spd
km/h
Gust
km/h
Spd
kts
Gust
kts
30/11:30pm 16.2 17.3 13.5 84 1.5 CALM 0 4 0 2 1019.3 1019.2 0.0
30/11:00pm 16.6 17.3 13.3 81 1.8 N 2 4 1 2 1019.4 1019.3 0.0
30/10:30pm 17.0 17.7 13.5 80 2.0 N 2 2 1 1 1019.6 1019.5 0.0
30/10:00pm 18.0 18.3 13.5 75 2.5 N 4 6 2 3 1019.6 1019.5 0.0
30/09:30pm 18.7 18.5 13.6 72 2.9 N 7 9 4 5 1019.5 1019.4 0.0
30/09:00pm 18.9 19.3 13.7 72 3.0 N 4 7 2 4 1019.5 1019.4 0.0
30/08:30pm 19.8 20.2 13.7 68 3.5 N 4 7 2 4 1019.4 1019.3 0.0
30/08:00pm 20.5 20.5 13.7 65 3.9 N 6 9 3 5 1019.2 1019.1 0.0
30/07:30pm 20.9 21.0 13.8 64 4.1 NNE 6 11 3 6 1018.8 1018.7 0.0
30/07:00pm 21.6 21.7 13.8 61 4.5 NNE 6 11 3 6 1018.4 1018.3 0.0
30/06:30pm 22.4 22.4 13.7 58 5.1 NNE 6 11 3 6 1018.1 1018.0 0.0
30/06:00pm 23.4 23.3 13.8 54 5.6 NE 7 15 4 8 1017.5 1017.4 0.0
30/05:30pm 24.4 23.9 13.9 52 6.2 NNE 9 17 5 9 1017.1 1017.0 0.0
30/05:00pm 25.6 23.7 14.1 49 6.8 NNE 17 28 9 15 1016.9 1016.8 0.0
30/04:30pm 26.5 26.2 14.3 47 7.3 NE 9 24 5 13 1016.4 1016.3 0.0
30/04:00pm 27.3 26.6 14.3 45 7.8 NE 11 24 6 13 1016.3 1016.2 0.0
30/03:30pm 28.3 28.0 12.6 38 9.2 E 6 11 3 6 1016.4 1016.3 0.0
30/03:00pm 28.3 27.3 12.2 37 9.4 NNE 9 17 5 9 1016.6 1016.5 0.0
30/02:30pm 28.2 27.1 12.1 37 9.4 NNW 9 19 5 10 1016.8 1016.7 0.0
30/02:00pm 27.6 26.5 12.0 38 9.0 N 9 19 5 10 1017.3 1017.2 0.0
30/01:30pm 27.3 26.4 11.3 37 9.1 N 7 13 4 7 1017.6 1017.5 0.0
30/01:00pm 26.9 25.6 11.4 38 8.8 NNE 9 15 5 8 1018.1 1018.0 0.0
30/12:30pm 26.7 26.6 12.0 40 8.5 N 4 13 2 7 1018.7 1018.6 0.0
30/12:00pm 26.3 25.4 12.7 43 7.9 N 9 19 5 10 1019.3 1019.2 0.0
30/11:30am 25.6 25.4 13.5 47 7.1 NNE 7 15 4 8 1019.8 1019.7 0.0
30/11:00am 24.3 23.1 12.9 49 6.6 NNW 11 17 6 9 1020.3 1020.2 0.0
30/10:30am 23.4 22.0 12.1 49 6.4 NNW 11 19 6 10 1020.9 1020.8 0.0
30/10:00am 22.9 22.1 12.8 53 5.8 N 9 19 5 10 1021.2 1021.1 0.0
30/09:30am 22.3 21.2 13.1 56 5.3 NNW 11 19 6 10 1021.6 1021.5 0.0
30/09:00am 20.6 21.4 13.8 65 3.9 NW 2 6 1 3 1021.8 1021.7 0.0
30/08:30am 18.6 19.5 14.1 75 2.6 S 2 4 1 2 1021.8 1021.7 0.0
30/08:00am 16.2 17.1 12.9 81 1.8 CALM 0 4 0 2 1021.8 1021.7 0.0
30/07:30am 14.4 14.8 12.6 89 1.0 S 2 4 1 2 1021.7 1021.6 0.0
30/07:00am 12.5 12.9 11.1 91 0.7 CALM 0 0 0 0 1021.6 1021.5 0.0
30/06:30am 10.6 10.7 10.3 98 0.2 CALM 0 0 0 0 1021.4 1021.3 0.0
30/06:00am 9.4 9.2 9.1 98 0.1 CALM 0 0 0 0 1021.1 1021.0 0.0
30/05:30am 9.3 9.0 8.8 97 0.2 CALM 0 0 0 0 1020.6 1020.5 0.0
30/05:00am 9.6 9.4 9.1 97 0.2 CALM 0 0 0 0 1020.4 1020.3 0.0
30/04:30am 9.7 9.5 9.2 97 0.2 CALM 0 0 0 0 1020.1 1020.0 0.0
30/04:00am 10.0 9.9 9.5 97 0.2 CALM 0 0 0 0 1019.8 1019.7 0.0
30/03:30am 10.1 10.0 9.6 97 0.3 CALM 0 0 0 0 1019.7 1019.6 0.0
30/03:00am 10.8 10.6 10.3 97 0.3 NNW 2 2 1 1 1019.6 1019.5 0.0
30/02:30am 10.8 10.9 10.2 96 0.3 CALM 0 0 0 0 1019.8 1019.7 0.0
30/02:00am 11.1 11.3 10.5 96 0.3 CALM 0 0 0 0 1020.0 1019.9 0.0
30/01:30am 11.5 11.7 10.7 95 0.4 CALM 0 0 0 0 1019.9 1019.8 0.0
30/01:00am 11.9 12.3 11.1 95 0.4 CALM 0 0 0 0 1020.0 1019.9 0.0
30/12:30am 11.9 12.1 10.6 92 0.7 CALM 0 0 0 0 1020.3 1020.2 0.0
30/12:00am 12.5 12.9 11.2 92 0.7 CALM 0 0 0 0 1020.4 1020.3 0.0
 
Date/Time
EST
Temp
°C
App
Temp
°C
Dew
Point
Rel
Hum
%
Delta-T
°C
Wind Press
QNH
hPa
Press
MSL
hPa
Rain
since 9 am
mm
Dir
 
Spd
km/h
Gust
km/h
Spd
kts
Gust
kts
29/11:30pm 12.9 13.4 11.6 92 0.7 CALM 0 0 0 0 1020.7 1020.6 0.0
29/11:00pm 13.3 13.8 11.7 90 0.9 CALM 0 0 0 0 1020.8 1020.7 0.0
29/10:30pm 13.6 13.8 11.7 88 1.0 N 2 4 1 2 1020.9 1020.8 0.0
29/10:00pm 14.1 14.6 11.6 85 1.3 CALM 0 0 0 0 1020.8 1020.7 0.0
29/09:30pm 14.1 14.2 11.4 84 1.4 N 2 4 1 2 1020.7 1020.6 0.0
29/09:00pm 15.8 16.5 12.2 79 2.0 CALM 0 0 0 0 1020.8 1020.7 0.0
29/08:30pm 16.3 16.9 11.9 75 2.4 CALM 0 0 0 0 1020.5 1020.4 0.0
29/08:00pm 16.8 17.3 11.7 72 2.8 CALM 0 0 0 0 1020.4 1020.3 0.0
29/07:30pm 18.2 18.3 11.5 65 3.7 NNW 2 4 1 2 1019.8 1019.7 0.0
29/07:00pm 19.5 19.3 11.8 61 4.3 NE 4 7 2 4 1019.3 1019.2 0.0
29/06:30pm 20.0 19.1 11.2 57 4.8 NE 7 15 4 8 1019.1 1019.0 0.0
29/06:00pm 20.9 20.2 11.5 55 5.2 NE 6 13 3 7 1018.7 1018.6 0.0
29/05:30pm 22.3 20.8 12.0 52 5.8 NNE 11 19 6 10 1018.1 1018.0 0.0
29/05:00pm 23.6 22.1 12.0 48 6.6 NE 11 20 6 11 1017.6 1017.5 0.0
29/04:30pm 24.5 22.7 12.1 46 7.1 NE 13 26 7 14 1017.2 1017.1 0.0

Other Formats:

Comma delimited format used in spreadsheet applications
http://www.bom.gov.au/fwo/IDQ60801/IDQ60801.94566.axf

JavaScript Object Notation format (JSON) in row-major order
http://www.bom.gov.au/fwo/IDQ60801/IDQ60801.94566.json